sensor_id;sensor_type;location;lat;lon;timestamp;temperature;humidity
2945;DHT22;1482;51.398;7.128;2024-02-23T00:01:28;6.50;59.50
2945;DHT22;1482;51.398;7.128;2024-02-23T00:03:53;6.50;60.00
2945;DHT22;1482;51.398;7.128;2024-02-23T00:06:20;6.50;64.50
2945;DHT22;1482;51.398;7.128;2024-02-23T00:08:46;6.40;63.20
2945;DHT22;1482;51.398;7.128;2024-02-23T00:11:12;6.50;64.00
2945;DHT22;1482;51.398;7.128;2024-02-23T00:13:37;6.50;66.40
2945;DHT22;1482;51.398;7.128;2024-02-23T00:16:03;6.50;59.10
2945;DHT22;1482;51.398;7.128;2024-02-23T00:18:29;6.30;62.40
2945;DHT22;1482;51.398;7.128;2024-02-23T00:20:55;6.30;71.50
2945;DHT22;1482;51.398;7.128;2024-02-23T00:23:21;6.30;86.80
2945;DHT22;1482;51.398;7.128;2024-02-23T00:25:47;6.20;97.00
2945;DHT22;1482;51.398;7.128;2024-02-23T00:28:12;6.20;99.90
2945;DHT22;1482;51.398;7.128;2024-02-23T00:30:38;6.20;99.90
2945;DHT22;1482;51.398;7.128;2024-02-23T00:33:04;6.20;99.90
2945;DHT22;1482;51.398;7.128;2024-02-23T00:35:30;6.20;99.90
2945;DHT22;1482;51.398;7.128;2024-02-23T00:37:56;6.20;99.90
2945;DHT22;1482;51.398;7.128;2024-02-23T00:40:22;6.20;99.90
2945;DHT22;1482;51.398;7.128;2024-02-23T00:42:48;6.10;99.90
2945;DHT22;1482;51.398;7.128;2024-02-23T00:45:14;6.10;99.90
2945;DHT22;1482;51.398;7.128;2024-02-23T00:47:40;6.00;99.90
2945;DHT22;1482;51.398;7.128;2024-02-23T00:50:06;6.00;99.90
2945;DHT22;1482;51.398;7.128;2024-02-23T00:52:31;6.00;99.90
2945;DHT22;1482;51.398;7.128;2024-02-23T00:54:57;6.10;99.90
2945;DHT22;1482;51.398;7.128;2024-02-23T00:57:23;6.00;99.90
2945;DHT22;1482;51.398;7.128;2024-02-23T00:59:52;6.00;99.90
2945;DHT22;1482;51.398;7.128;2024-02-23T01:02:18;6.00;99.90
2945;DHT22;1482;51.398;7.128;2024-02-23T01:04:44;6.10;99.90
2945;DHT22;1482;51.398;7.128;2024-02-23T01:07:09;6.10;99.90
2945;DHT22;1482;51.398;7.128;2024-02-23T01:09:35;6.10;99.90
2945;DHT22;1482;51.398;7.128;2024-02-23T01:12:00;6.10;99.90
2945;DHT22;1482;51.398;7.128;2024-02-23T01:14:26;6.00;87.00
2945;DHT22;1482;51.398;7.128;2024-02-23T01:16:51;6.00;83.90
2945;DHT22;1482;51.398;7.128;2024-02-23T01:19:17;6.00;74.70
2945;DHT22;1482;51.398;7.128;2024-02-23T01:21:44;6.00;77.70
2945;DHT22;1482;51.398;7.128;2024-02-23T01:24:09;5.90;75.50
2945;DHT22;1482;51.398;7.128;2024-02-23T01:26:35;5.80;71.30
2945;DHT22;1482;51.398;7.128;2024-02-23T01:29:00;5.80;68.70
2945;DHT22;1482;51.398;7.128;2024-02-23T01:31:26;5.60;71.50
2945;DHT22;1482;51.398;7.128;2024-02-23T01:33:51;5.60;78.30
2945;DHT22;1482;51.398;7.128;2024-02-23T01:36:17;5.60;81.00
2945;DHT22;1482;51.398;7.128;2024-02-23T01:38:43;5.60;86.80
2945;DHT22;1482;51.398;7.128;2024-02-23T01:41:08;5.60;90.00
2945;DHT22;1482;51.398;7.128;2024-02-23T01:43:36;5.60;92.70
2945;DHT22;1482;51.398;7.128;2024-02-23T01:46:02;5.60;97.00
2945;DHT22;1482;51.398;7.128;2024-02-23T01:48:28;5.60;99.10
2945;DHT22;1482;51.398;7.128;2024-02-23T01:50:54;5.60;98.20
2945;DHT22;1482;51.398;7.128;2024-02-23T01:53:20;5.70;98.30
2945;DHT22;1482;51.398;7.128;2024-02-23T01:55:47;5.70;92.20
2945;DHT22;1482;51.398;7.128;2024-02-23T01:58:13;5.80;91.40
2945;DHT22;1482;51.398;7.128;2024-02-23T02:00:39;5.80;90.80
2945;DHT22;1482;51.398;7.128;2024-02-23T02:03:04;5.80;88.30
2945;DHT22;1482;51.398;7.128;2024-02-23T02:05:30;5.90;80.80
2945;DHT22;1482;51.398;7.128;2024-02-23T02:07:56;5.90;77.10
2945;DHT22;1482;51.398;7.128;2024-02-23T02:10:25;5.90;68.60
2945;DHT22;1482;51.398;7.128;2024-02-23T02:12:52;5.90;67.60
2945;DHT22;1482;51.398;7.128;2024-02-23T02:15:17;5.90;71.20
2945;DHT22;1482;51.398;7.128;2024-02-23T02:17:43;6.00;71.40
2945;DHT22;1482;51.398;7.128;2024-02-23T02:20:12;6.00;69.10
2945;DHT22;1482;51.398;7.128;2024-02-23T02:22:38;6.00;64.80
2945;DHT22;1482;51.398;7.128;2024-02-23T02:25:05;6.10;59.70
2945;DHT22;1482;51.398;7.128;2024-02-23T02:27:34;6.00;59.20
2945;DHT22;1482;51.398;7.128;2024-02-23T02:29:59;6.00;57.60
2945;DHT22;1482;51.398;7.128;2024-02-23T02:32:25;6.10;58.60
2945;DHT22;1482;51.398;7.128;2024-02-23T02:34:50;6.00;57.50
2945;DHT22;1482;51.398;7.128;2024-02-23T02:37:16;6.00;53.70
2945;DHT22;1482;51.398;7.128;2024-02-23T02:39:41;6.00;54.80
2945;DHT22;1482;51.398;7.128;2024-02-23T02:42:07;6.00;53.90
2945;DHT22;1482;51.398;7.128;2024-02-23T02:44:32;6.00;53.30
2945;DHT22;1482;51.398;7.128;2024-02-23T02:46:58;6.00;53.00
2945;DHT22;1482;51.398;7.128;2024-02-23T02:49:24;5.90;52.40
2945;DHT22;1482;51.398;7.128;2024-02-23T02:51:49;5.90;50.60
2945;DHT22;1482;51.398;7.128;2024-02-23T02:54:15;5.90;49.40
2945;DHT22;1482;51.398;7.128;2024-02-23T02:56:44;5.80;49.70
2945;DHT22;1482;51.398;7.128;2024-02-23T02:59:11;5.80;50.80
2945;DHT22;1482;51.398;7.128;2024-02-23T03:01:37;5.90;52.30
2945;DHT22;1482;51.398;7.128;2024-02-23T03:04:03;5.80;55.80
2945;DHT22;1482;51.398;7.128;2024-02-23T03:06:28;5.90;51.60
2945;DHT22;1482;51.398;7.128;2024-02-23T03:08:54;5.90;49.00
2945;DHT22;1482;51.398;7.128;2024-02-23T03:11:19;5.80;48.70
2945;DHT22;1482;51.398;7.128;2024-02-23T03:13:45;5.80;45.80
2945;DHT22;1482;51.398;7.128;2024-02-23T03:16:17;5.80;44.80
2945;DHT22;1482;51.398;7.128;2024-02-23T03:18:43;5.70;44.10
2945;DHT22;1482;51.398;7.128;2024-02-23T03:21:09;5.60;45.10
2945;DHT22;1482;51.398;7.128;2024-02-23T03:23:35;5.60;47.40
2945;DHT22;1482;51.398;7.128;2024-02-23T03:26:01;5.60;49.50
2945;DHT22;1482;51.398;7.128;2024-02-23T03:28:27;5.60;51.50
2945;DHT22;1482;51.398;7.128;2024-02-23T03:30:53;5.70;52.40
2945;DHT22;1482;51.398;7.128;2024-02-23T03:33:18;5.70;49.60
2945;DHT22;1482;51.398;7.128;2024-02-23T03:35:44;5.70;50.10
2945;DHT22;1482;51.398;7.128;2024-02-23T03:38:10;5.80;49.70
2945;DHT22;1482;51.398;7.128;2024-02-23T03:40:35;5.80;46.40
2945;DHT22;1482;51.398;7.128;2024-02-23T03:43:01;5.80;44.10
2945;DHT22;1482;51.398;7.128;2024-02-23T03:45:27;5.70;39.30
2945;DHT22;1482;51.398;7.128;2024-02-23T03:47:53;5.70;39.60
2945;DHT22;1482;51.398;7.128;2024-02-23T03:50:19;5.70;37.90
2945;DHT22;1482;51.398;7.128;2024-02-23T03:52:44;5.70;39.70
2945;DHT22;1482;51.398;7.128;2024-02-23T03:55:10;5.80;38.20
2945;DHT22;1482;51.398;7.128;2024-02-23T03:57:35;5.80;37.60
2945;DHT22;1482;51.398;7.128;2024-02-23T04:00:01;5.80;36.30
2945;DHT22;1482;51.398;7.128;2024-02-23T04:02:27;5.80;34.30
2945;DHT22;1482;51.398;7.128;2024-02-23T04:04:53;5.80;47.70
2945;DHT22;1482;51.398;7.128;2024-02-23T04:07:19;5.70;35.30
2945;DHT22;1482;51.398;7.128;2024-02-23T04:09:44;5.70;36.10
2945;DHT22;1482;51.398;7.128;2024-02-23T04:12:10;5.70;36.20
2945;DHT22;1482;51.398;7.128;2024-02-23T04:14:36;5.70;32.90
2945;DHT22;1482;51.398;7.128;2024-02-23T04:17:04;5.70;34.90
2945;DHT22;1482;51.398;7.128;2024-02-23T04:19:30;5.80;32.50
2945;DHT22;1482;51.398;7.128;2024-02-23T04:21:56;5.80;29.70
2945;DHT22;1482;51.398;7.128;2024-02-23T04:24:22;5.80;28.00
2945;DHT22;1482;51.398;7.128;2024-02-23T04:26:47;5.80;26.50
2945;DHT22;1482;51.398;7.128;2024-02-23T04:29:13;5.80;24.60
2945;DHT22;1482;51.398;7.128;2024-02-23T04:31:38;5.80;23.60
2945;DHT22;1482;51.398;7.128;2024-02-23T04:34:04;5.80;22.30
2945;DHT22;1482;51.398;7.128;2024-02-23T04:36:29;5.80;21.60
2945;DHT22;1482;51.398;7.128;2024-02-23T04:38:55;5.80;22.20
2945;DHT22;1482;51.398;7.128;2024-02-23T04:41:21;5.80;21.30
2945;DHT22;1482;51.398;7.128;2024-02-23T04:43:47;5.80;20.20
2945;DHT22;1482;51.398;7.128;2024-02-23T04:46:13;5.80;18.10
2945;DHT22;1482;51.398;7.128;2024-02-23T04:48:38;5.80;16.80
2945;DHT22;1482;51.398;7.128;2024-02-23T04:51:04;5.80;17.20
2945;DHT22;1482;51.398;7.128;2024-02-23T04:53:30;5.80;16.80
2945;DHT22;1482;51.398;7.128;2024-02-23T04:55:56;5.80;17.40
2945;DHT22;1482;51.398;7.128;2024-02-23T04:58:21;5.80;17.10
2945;DHT22;1482;51.398;7.128;2024-02-23T05:00:47;5.80;17.50
2945;DHT22;1482;51.398;7.128;2024-02-23T05:03:13;5.90;18.90
2945;DHT22;1482;51.398;7.128;2024-02-23T05:05:39;5.90;17.40
2945;DHT22;1482;51.398;7.128;2024-02-23T05:08:05;5.80;17.00
2945;DHT22;1482;51.398;7.128;2024-02-23T05:10:30;5.80;18.10
2945;DHT22;1482;51.398;7.128;2024-02-23T05:12:56;5.90;18.00
2945;DHT22;1482;51.398;7.128;2024-02-23T05:15:21;5.90;17.00
2945;DHT22;1482;51.398;7.128;2024-02-23T05:17:47;5.90;15.70
2945;DHT22;1482;51.398;7.128;2024-02-23T05:20:14;5.90;23.70
2945;DHT22;1482;51.398;7.128;2024-02-23T05:22:40;5.90;14.80
2945;DHT22;1482;51.398;7.128;2024-02-23T05:25:06;5.80;14.40
2945;DHT22;1482;51.398;7.128;2024-02-23T05:27:31;5.90;15.10
2945;DHT22;1482;51.398;7.128;2024-02-23T05:29:57;5.90;13.20
2945;DHT22;1482;51.398;7.128;2024-02-23T05:32:23;5.90;13.60
2945;DHT22;1482;51.398;7.128;2024-02-23T05:34:48;5.90;13.60
2945;DHT22;1482;51.398;7.128;2024-02-23T05:37:17;5.90;12.10
2945;DHT22;1482;51.398;7.128;2024-02-23T05:39:42;5.90;11.60
2945;DHT22;1482;51.398;7.128;2024-02-23T05:42:08;5.80;11.30
2945;DHT22;1482;51.398;7.128;2024-02-23T05:44:33;5.80;11.50
2945;DHT22;1482;51.398;7.128;2024-02-23T05:46:59;5.80;10.80
2945;DHT22;1482;51.398;7.128;2024-02-23T05:49:25;5.70;10.20
2945;DHT22;1482;51.398;7.128;2024-02-23T05:51:50;5.80;10.20
2945;DHT22;1482;51.398;7.128;2024-02-23T05:54:16;5.70;9.40
2945;DHT22;1482;51.398;7.128;2024-02-23T05:56:41;5.60;9.20
2945;DHT22;1482;51.398;7.128;2024-02-23T05:59:07;5.60;9.90
2945;DHT22;1482;51.398;7.128;2024-02-23T06:01:32;5.50;10.30
2945;DHT22;1482;51.398;7.128;2024-02-23T06:03:58;5.50;10.30
2945;DHT22;1482;51.398;7.128;2024-02-23T06:06:23;5.50;10.50
2945;DHT22;1482;51.398;7.128;2024-02-23T06:08:49;5.40;10.70
2945;DHT22;1482;51.398;7.128;2024-02-23T06:11:17;5.40;9.40
2945;DHT22;1482;51.398;7.128;2024-02-23T06:13:43;5.40;10.60
2945;DHT22;1482;51.398;7.128;2024-02-23T06:16:11;5.30;11.20
2945;DHT22;1482;51.398;7.128;2024-02-23T06:18:38;5.40;12.00
2945;DHT22;1482;51.398;7.128;2024-02-23T06:21:15;5.30;12.40
2945;DHT22;1482;51.398;7.128;2024-02-23T06:23:42;5.40;11.50
2945;DHT22;1482;51.398;7.128;2024-02-23T06:26:08;5.40;13.10
2945;DHT22;1482;51.398;7.128;2024-02-23T06:28:34;5.40;12.00
2945;DHT22;1482;51.398;7.128;2024-02-23T06:31:00;5.40;11.30
2945;DHT22;1482;51.398;7.128;2024-02-23T06:33:25;5.40;10.40
2945;DHT22;1482;51.398;7.128;2024-02-23T06:35:51;5.50;9.90
2945;DHT22;1482;51.398;7.128;2024-02-23T06:38:17;5.50;8.30
2945;DHT22;1482;51.398;7.128;2024-02-23T06:40:43;5.60;8.40
2945;DHT22;1482;51.398;7.128;2024-02-23T06:43:09;5.60;6.50
2945;DHT22;1482;51.398;7.128;2024-02-23T06:45:34;5.60;5.80
2945;DHT22;1482;51.398;7.128;2024-02-23T06:48:00;5.60;4.20
2945;DHT22;1482;51.398;7.128;2024-02-23T06:50:25;5.70;4.10
2945;DHT22;1482;51.398;7.128;2024-02-23T06:52:51;5.70;3.30
2945;DHT22;1482;51.398;7.128;2024-02-23T06:55:16;5.80;2.20
2945;DHT22;1482;51.398;7.128;2024-02-23T06:57:43;5.80;1.80
2945;DHT22;1482;51.398;7.128;2024-02-23T07:00:09;5.70;1.00
2945;DHT22;1482;51.398;7.128;2024-02-23T07:02:34;5.80;1.20
2945;DHT22;1482;51.398;7.128;2024-02-23T07:05:02;5.80;1.00
2945;DHT22;1482;51.398;7.128;2024-02-23T07:07:30;5.90;1.00
2945;DHT22;1482;51.398;7.128;2024-02-23T07:09:56;5.90;1.00
2945;DHT22;1482;51.398;7.128;2024-02-23T07:12:21;6.00;1.00
2945;DHT22;1482;51.398;7.128;2024-02-23T07:14:48;6.00;1.00
2945;DHT22;1482;51.398;7.128;2024-02-23T07:17:17;6.00;1.00
2945;DHT22;1482;51.398;7.128;2024-02-23T07:19:42;6.10;1.00
2945;DHT22;1482;51.398;7.128;2024-02-23T07:22:08;6.20;1.00
2945;DHT22;1482;51.398;7.128;2024-02-23T07:24:33;6.30;1.00
2945;DHT22;1482;51.398;7.128;2024-02-23T07:26:59;6.40;1.00
2945;DHT22;1482;51.398;7.128;2024-02-23T07:29:24;6.60;1.00
2945;DHT22;1482;51.398;7.128;2024-02-23T07:31:50;6.80;1.00
2945;DHT22;1482;51.398;7.128;2024-02-23T07:34:15;7.10;1.00
2945;DHT22;1482;51.398;7.128;2024-02-23T07:36:41;7.70;1.00
2945;DHT22;1482;51.398;7.128;2024-02-23T07:39:08;8.20;1.00
2945;DHT22;1482;51.398;7.128;2024-02-23T07:41:33;8.70;1.00
2945;DHT22;1482;51.398;7.128;2024-02-23T07:43:59;9.50;1.00
2945;DHT22;1482;51.398;7.128;2024-02-23T07:46:24;10.10;1.00
2945;DHT22;1482;51.398;7.128;2024-02-23T07:48:50;11.20;1.00
2945;DHT22;1482;51.398;7.128;2024-02-23T07:51:16;11.50;1.00
2945;DHT22;1482;51.398;7.128;2024-02-23T07:53:41;11.10;1.00
2945;DHT22;1482;51.398;7.128;2024-02-23T07:56:09;10.70;1.00
2945;DHT22;1482;51.398;7.128;2024-02-23T07:58:35;10.30;1.00
2945;DHT22;1482;51.398;7.128;2024-02-23T08:01:01;9.70;1.00
2945;DHT22;1482;51.398;7.128;2024-02-23T08:03:26;9.30;1.00
2945;DHT22;1482;51.398;7.128;2024-02-23T08:05:52;9.00;1.00
2945;DHT22;1482;51.398;7.128;2024-02-23T08:08:17;8.80;1.00
2945;DHT22;1482;51.398;7.128;2024-02-23T08:10:44;8.60;1.00
2945;DHT22;1482;51.398;7.128;2024-02-23T08:13:09;8.70;1.00
2945;DHT22;1482;51.398;7.128;2024-02-23T08:15:36;8.80;1.00
2945;DHT22;1482;51.398;7.128;2024-02-23T08:18:01;10.30;1.00
2945;DHT22;1482;51.398;7.128;2024-02-23T08:20:27;11.60;1.00
2945;DHT22;1482;51.398;7.128;2024-02-23T08:22:53;13.30;1.00
2945;DHT22;1482;51.398;7.128;2024-02-23T08:25:18;15.40;3.20
2945;DHT22;1482;51.398;7.128;2024-02-23T08:27:44;14.80;1.00
2945;DHT22;1482;51.398;7.128;2024-02-23T08:30:09;13.70;1.00
2945;DHT22;1482;51.398;7.128;2024-02-23T08:32:36;12.40;1.00
2945;DHT22;1482;51.398;7.128;2024-02-23T08:35:02;12.40;1.00
2945;DHT22;1482;51.398;7.128;2024-02-23T08:37:28;12.60;1.00
2945;DHT22;1482;51.398;7.128;2024-02-23T08:39:53;12.00;1.00
2945;DHT22;1482;51.398;7.128;2024-02-23T08:42:19;11.30;1.00
2945;DHT22;1482;51.398;7.128;2024-02-23T08:44:45;10.60;1.00
2945;DHT22;1482;51.398;7.128;2024-02-23T08:47:10;10.20;1.00
2945;DHT22;1482;51.398;7.128;2024-02-23T08:49:37;9.90;1.00
2945;DHT22;1482;51.398;7.128;2024-02-23T08:52:02;10.10;1.00
2945;DHT22;1482;51.398;7.128;2024-02-23T08:54:29;10.10;1.00
2945;DHT22;1482;51.398;7.128;2024-02-23T08:56:54;9.90;1.00
2945;DHT22;1482;51.398;7.128;2024-02-23T08:59:20;9.70;1.00
2945;DHT22;1482;51.398;7.128;2024-02-23T09:01:46;9.50;1.00
2945;DHT22;1482;51.398;7.128;2024-02-23T09:04:12;9.30;1.00
2945;DHT22;1482;51.398;7.128;2024-02-23T09:06:38;9.00;1.00
2945;DHT22;1482;51.398;7.128;2024-02-23T09:09:03;8.50;1.00
2945;DHT22;1482;51.398;7.128;2024-02-23T09:11:29;8.40;1.00
2945;DHT22;1482;51.398;7.128;2024-02-23T09:13:54;8.20;1.00
2945;DHT22;1482;51.398;7.128;2024-02-23T09:16:20;8.10;1.00
2945;DHT22;1482;51.398;7.128;2024-02-23T09:18:48;8.10;1.00
2945;DHT22;1482;51.398;7.128;2024-02-23T09:21:14;8.10;1.00
2945;DHT22;1482;51.398;7.128;2024-02-23T09:23:40;8.10;1.00
2945;DHT22;1482;51.398;7.128;2024-02-23T09:26:09;8.00;1.00
2945;DHT22;1482;51.398;7.128;2024-02-23T09:28:36;8.10;1.00
2945;DHT22;1482;51.398;7.128;2024-02-23T09:31:01;8.20;1.00
2945;DHT22;1482;51.398;7.128;2024-02-23T09:33:28;8.10;1.00
2945;DHT22;1482;51.398;7.128;2024-02-23T09:35:54;8.10;1.00
2945;DHT22;1482;51.398;7.128;2024-02-23T09:38:19;8.00;1.00
2945;DHT22;1482;51.398;7.128;2024-02-23T09:40:45;8.10;1.00
2945;DHT22;1482;51.398;7.128;2024-02-23T09:43:12;8.10;1.00
2945;DHT22;1482;51.398;7.128;2024-02-23T09:45:39;8.00;1.00
2945;DHT22;1482;51.398;7.128;2024-02-23T09:48:07;8.20;1.00
2945;DHT22;1482;51.398;7.128;2024-02-23T09:50:32;8.40;1.00
2945;DHT22;1482;51.398;7.128;2024-02-23T09:52:59;8.50;1.00
2945;DHT22;1482;51.398;7.128;2024-02-23T09:55:25;8.60;1.00
2945;DHT22;1482;51.398;7.128;2024-02-23T09:57:52;8.60;1.00
2945;DHT22;1482;51.398;7.128;2024-02-23T10:00:23;8.70;1.00
2945;DHT22;1482;51.398;7.128;2024-02-23T10:02:48;8.70;1.00
2945;DHT22;1482;51.398;7.128;2024-02-23T10:05:14;9.40;1.00
2945;DHT22;1482;51.398;7.128;2024-02-23T10:07:42;9.60;1.00
2945;DHT22;1482;51.398;7.128;2024-02-23T10:10:08;9.60;1.00
2945;DHT22;1482;51.398;7.128;2024-02-23T10:12:36;9.40;1.00
2945;DHT22;1482;51.398;7.128;2024-02-23T10:15:02;9.40;1.00
2945;DHT22;1482;51.398;7.128;2024-02-23T10:17:30;9.30;1.00
2945;DHT22;1482;51.398;7.128;2024-02-23T10:19:56;9.30;1.00
2945;DHT22;1482;51.398;7.128;2024-02-23T10:22:23;9.20;1.00
2945;DHT22;1482;51.398;7.128;2024-02-23T10:24:50;9.10;1.00
2945;DHT22;1482;51.398;7.128;2024-02-23T10:27:16;9.10;1.00
2945;DHT22;1482;51.398;7.128;2024-02-23T10:29:42;9.10;1.00
2945;DHT22;1482;51.398;7.128;2024-02-23T10:32:13;9.10;1.00
2945;DHT22;1482;51.398;7.128;2024-02-23T10:34:42;9.10;1.00
2945;DHT22;1482;51.398;7.128;2024-02-23T10:37:08;8.90;1.00
2945;DHT22;1482;51.398;7.128;2024-02-23T10:39:36;9.00;1.00
2945;DHT22;1482;51.398;7.128;2024-02-23T10:42:03;9.10;1.00
2945;DHT22;1482;51.398;7.128;2024-02-23T10:44:30;9.10;1.00
2945;DHT22;1482;51.398;7.128;2024-02-23T10:46:58;9.10;1.00
2945;DHT22;1482;51.398;7.128;2024-02-23T10:49:24;9.20;1.00
2945;DHT22;1482;51.398;7.128;2024-02-23T10:51:53;9.20;1.00
2945;DHT22;1482;51.398;7.128;2024-02-23T10:54:19;9.20;1.00
2945;DHT22;1482;51.398;7.128;2024-02-23T10:56:52;9.30;1.00
2945;DHT22;1482;51.398;7.128;2024-02-23T10:59:18;9.30;1.00
2945;DHT22;1482;51.398;7.128;2024-02-23T11:01:49;9.40;1.00
2945;DHT22;1482;51.398;7.128;2024-02-23T11:04:19;9.50;1.00
2945;DHT22;1482;51.398;7.128;2024-02-23T11:06:55;9.80;1.00
2945;DHT22;1482;51.398;7.128;2024-02-23T11:09:24;9.80;1.00
2945;DHT22;1482;51.398;7.128;2024-02-23T11:11:57;9.90;1.00
2945;DHT22;1482;51.398;7.128;2024-02-23T11:14:35;9.80;1.00
2945;DHT22;1482;51.398;7.128;2024-02-23T11:17:01;9.90;1.00
2945;DHT22;1482;51.398;7.128;2024-02-23T11:19:37;9.80;1.00
2945;DHT22;1482;51.398;7.128;2024-02-23T11:22:04;9.60;1.00
2945;DHT22;1482;51.398;7.128;2024-02-23T11:24:30;9.40;1.00
2945;DHT22;1482;51.398;7.128;2024-02-23T11:27:00;9.40;1.00
2945;DHT22;1482;51.398;7.128;2024-02-23T11:29:33;9.30;1.00
2945;DHT22;1482;51.398;7.128;2024-02-23T11:32:00;9.40;1.00
2945;DHT22;1482;51.398;7.128;2024-02-23T11:34:29;9.40;1.00
2945;DHT22;1482;51.398;7.128;2024-02-23T11:36:55;9.40;1.00
2945;DHT22;1482;51.398;7.128;2024-02-23T11:39:22;9.30;1.00
2945;DHT22;1482;51.398;7.128;2024-02-23T11:41:48;9.30;1.00
2945;DHT22;1482;51.398;7.128;2024-02-23T11:44:17;9.20;1.00
2945;DHT22;1482;51.398;7.128;2024-02-23T11:46:43;9.20;1.00
2945;DHT22;1482;51.398;7.128;2024-02-23T11:49:10;9.20;1.00
2945;DHT22;1482;51.398;7.128;2024-02-23T11:51:36;9.10;1.00
2945;DHT22;1482;51.398;7.128;2024-02-23T11:54:02;9.10;1.00
2945;DHT22;1482;51.398;7.128;2024-02-23T11:56:29;9.00;1.00
2945;DHT22;1482;51.398;7.128;2024-02-23T11:58:55;9.00;1.00
2945;DHT22;1482;51.398;7.128;2024-02-23T12:01:21;9.10;1.00
2945;DHT22;1482;51.398;7.128;2024-02-23T12:03:47;9.10;1.00
2945;DHT22;1482;51.398;7.128;2024-02-23T12:06:14;9.20;1.00
2945;DHT22;1482;51.398;7.128;2024-02-23T12:08:41;9.30;1.00
2945;DHT22;1482;51.398;7.128;2024-02-23T12:11:08;9.30;1.00
2945;DHT22;1482;51.398;7.128;2024-02-23T12:13:35;9.20;1.00
2945;DHT22;1482;51.398;7.128;2024-02-23T12:16:01;9.20;1.00
2945;DHT22;1482;51.398;7.128;2024-02-23T12:18:27;9.00;1.00
2945;DHT22;1482;51.398;7.128;2024-02-23T12:21:02;9.10;1.00
2945;DHT22;1482;51.398;7.128;2024-02-23T12:23:41;9.10;1.00
2945;DHT22;1482;51.398;7.128;2024-02-23T12:26:08;9.20;1.00
2945;DHT22;1482;51.398;7.128;2024-02-23T12:28:33;9.20;1.00
2945;DHT22;1482;51.398;7.128;2024-02-23T12:31:03;9.20;1.00
2945;DHT22;1482;51.398;7.128;2024-02-23T12:33:31;9.10;1.00
2945;DHT22;1482;51.398;7.128;2024-02-23T12:35:58;9.10;1.00
2945;DHT22;1482;51.398;7.128;2024-02-23T12:38:24;9.10;1.00
2945;DHT22;1482;51.398;7.128;2024-02-23T12:40:51;9.10;1.00
2945;DHT22;1482;51.398;7.128;2024-02-23T12:43:17;9.20;1.00
2945;DHT22;1482;51.398;7.128;2024-02-23T12:45:43;9.20;1.00
2945;DHT22;1482;51.398;7.128;2024-02-23T12:48:10;9.30;1.00
2945;DHT22;1482;51.398;7.128;2024-02-23T12:50:36;9.20;1.00
2945;DHT22;1482;51.398;7.128;2024-02-23T12:53:02;9.10;1.00
2945;DHT22;1482;51.398;7.128;2024-02-23T12:55:29;9.10;1.00
2945;DHT22;1482;51.398;7.128;2024-02-23T12:57:55;9.20;1.00
2945;DHT22;1482;51.398;7.128;2024-02-23T13:00:20;9.20;1.00
2945;DHT22;1482;51.398;7.128;2024-02-23T13:02:46;9.30;1.00
2945;DHT22;1482;51.398;7.128;2024-02-23T13:05:12;9.40;1.00
2945;DHT22;1482;51.398;7.128;2024-02-23T13:07:37;9.50;1.00
2945;DHT22;1482;51.398;7.128;2024-02-23T13:10:06;9.50;1.00
2945;DHT22;1482;51.398;7.128;2024-02-23T13:12:32;9.60;1.00
2945;DHT22;1482;51.398;7.128;2024-02-23T13:14:58;9.50;1.00
2945;DHT22;1482;51.398;7.128;2024-02-23T13:17:23;9.50;1.00
2945;DHT22;1482;51.398;7.128;2024-02-23T13:19:49;9.40;1.00
2945;DHT22;1482;51.398;7.128;2024-02-23T13:22:15;9.40;1.00
2945;DHT22;1482;51.398;7.128;2024-02-23T13:24:40;9.30;1.00
2945;DHT22;1482;51.398;7.128;2024-02-23T13:27:06;9.30;1.00
2945;DHT22;1482;51.398;7.128;2024-02-23T13:29:31;9.20;1.00
2945;DHT22;1482;51.398;7.128;2024-02-23T13:31:57;9.10;1.00
2945;DHT22;1482;51.398;7.128;2024-02-23T13:34:22;9.10;1.00
2945;DHT22;1482;51.398;7.128;2024-02-23T13:36:48;9.10;1.00
2945;DHT22;1482;51.398;7.128;2024-02-23T13:39:15;9.30;1.00
2945;DHT22;1482;51.398;7.128;2024-02-23T13:41:41;9.50;1.00
2945;DHT22;1482;51.398;7.128;2024-02-23T13:44:07;9.50;1.00
2945;DHT22;1482;51.398;7.128;2024-02-23T13:46:39;9.50;1.00
2945;DHT22;1482;51.398;7.128;2024-02-23T13:49:06;9.60;1.00
2945;DHT22;1482;51.398;7.128;2024-02-23T13:51:33;9.80;1.00
2945;DHT22;1482;51.398;7.128;2024-02-23T13:53:59;9.90;1.00
2945;DHT22;1482;51.398;7.128;2024-02-23T13:56:24;9.80;1.00
2945;DHT22;1482;51.398;7.128;2024-02-23T13:58:50;9.80;1.00
2945;DHT22;1482;51.398;7.128;2024-02-23T14:01:16;9.90;1.00
2945;DHT22;1482;51.398;7.128;2024-02-23T14:03:41;10.00;1.00
2945;DHT22;1482;51.398;7.128;2024-02-23T14:06:07;10.10;1.00
2945;DHT22;1482;51.398;7.128;2024-02-23T14:08:33;10.00;1.00
2945;DHT22;1482;51.398;7.128;2024-02-23T14:11:00;10.10;1.00
2945;DHT22;1482;51.398;7.128;2024-02-23T14:13:26;10.20;1.00
2945;DHT22;1482;51.398;7.128;2024-02-23T14:15:51;10.10;1.00
2945;DHT22;1482;51.398;7.128;2024-02-23T14:18:17;10.20;1.00
2945;DHT22;1482;51.398;7.128;2024-02-23T14:20:43;10.20;1.00
2945;DHT22;1482;51.398;7.128;2024-02-23T14:23:09;10.20;1.00
2945;DHT22;1482;51.398;7.128;2024-02-23T14:25:34;10.20;1.00
2945;DHT22;1482;51.398;7.128;2024-02-23T14:27:59;10.30;1.00
2945;DHT22;1482;51.398;7.128;2024-02-23T14:30:25;10.30;1.00
2945;DHT22;1482;51.398;7.128;2024-02-23T14:32:51;10.40;1.00
2945;DHT22;1482;51.398;7.128;2024-02-23T14:35:16;10.40;1.00
2945;DHT22;1482;51.398;7.128;2024-02-23T14:37:42;10.50;1.00
2945;DHT22;1482;51.398;7.128;2024-02-23T14:40:08;10.50;1.00
2945;DHT22;1482;51.398;7.128;2024-02-23T14:42:34;10.50;1.00
2945;DHT22;1482;51.398;7.128;2024-02-23T14:44:59;10.50;1.00
2945;DHT22;1482;51.398;7.128;2024-02-23T14:47:25;10.40;1.00
2945;DHT22;1482;51.398;7.128;2024-02-23T14:49:50;10.20;1.00
2945;DHT22;1482;51.398;7.128;2024-02-23T14:52:16;10.00;1.00
2945;DHT22;1482;51.398;7.128;2024-02-23T14:54:41;9.80;1.00
2945;DHT22;1482;51.398;7.128;2024-02-23T14:57:07;9.70;1.00
2945;DHT22;1482;51.398;7.128;2024-02-23T14:59:33;9.70;1.00
2945;DHT22;1482;51.398;7.128;2024-02-23T15:02:05;9.70;1.00
2945;DHT22;1482;51.398;7.128;2024-02-23T15:04:30;9.70;1.00
2945;DHT22;1482;51.398;7.128;2024-02-23T15:06:56;9.70;1.00
2945;DHT22;1482;51.398;7.128;2024-02-23T15:09:22;9.70;1.00
2945;DHT22;1482;51.398;7.128;2024-02-23T15:11:47;9.80;1.00
2945;DHT22;1482;51.398;7.128;2024-02-23T15:14:13;9.70;1.00
2945;DHT22;1482;51.398;7.128;2024-02-23T15:16:40;9.80;1.00
2945;DHT22;1482;51.398;7.128;2024-02-23T15:19:06;9.70;1.00
2945;DHT22;1482;51.398;7.128;2024-02-23T15:21:31;9.50;1.00
2945;DHT22;1482;51.398;7.128;2024-02-23T15:23:57;9.40;1.00
2945;DHT22;1482;51.398;7.128;2024-02-23T15:26:22;9.40;1.00
2945;DHT22;1482;51.398;7.128;2024-02-23T15:28:48;9.40;1.00
2945;DHT22;1482;51.398;7.128;2024-02-23T15:31:13;9.40;1.00
2945;DHT22;1482;51.398;7.128;2024-02-23T15:33:39;9.50;1.00
2945;DHT22;1482;51.398;7.128;2024-02-23T15:36:08;9.30;1.00
2945;DHT22;1482;51.398;7.128;2024-02-23T15:38:35;9.30;1.00
2945;DHT22;1482;51.398;7.128;2024-02-23T15:41:01;9.20;1.00
2945;DHT22;1482;51.398;7.128;2024-02-23T15:43:27;9.20;1.00
2945;DHT22;1482;51.398;7.128;2024-02-23T15:45:54;9.10;1.00
2945;DHT22;1482;51.398;7.128;2024-02-23T15:48:19;8.80;1.00
2945;DHT22;1482;51.398;7.128;2024-02-23T15:50:45;8.40;1.00
2945;DHT22;1482;51.398;7.128;2024-02-23T15:53:11;8.30;2.70
2945;DHT22;1482;51.398;7.128;2024-02-23T15:55:36;8.30;7.70
2945;DHT22;1482;51.398;7.128;2024-02-23T15:58:02;8.30;11.00
2945;DHT22;1482;51.398;7.128;2024-02-23T16:00:29;8.30;8.80
2945;DHT22;1482;51.398;7.128;2024-02-23T16:02:54;8.20;15.20
2945;DHT22;1482;51.398;7.128;2024-02-23T16:05:20;8.20;17.10
2945;DHT22;1482;51.398;7.128;2024-02-23T16:07:46;8.20;19.50
2945;DHT22;1482;51.398;7.128;2024-02-23T16:10:17;8.30;24.60
2945;DHT22;1482;51.398;7.128;2024-02-23T16:12:49;8.30;29.40
2945;DHT22;1482;51.398;7.128;2024-02-23T16:15:15;8.40;29.30
2945;DHT22;1482;51.398;7.128;2024-02-23T16:17:41;8.30;22.10
2945;DHT22;1482;51.398;7.128;2024-02-23T16:20:07;8.30;22.60